Time;durP1;ratioP1;P1;durP2;ratioP2;P2;SDS_P1;SDS_P2;PMS_P1;PMS_P2;Temp;Humidity;BMP_temperature;BMP_pressure;BME280_temperature;BME280_humidity;BME280_pressure;Samples;Min_cycle;Max_cycle;Signal;HPM_P1;HPM_P2
2023/09/22 00:00:47;;;;;;;387.60;91.50;;;;;;;;;;5039688;28;20121;-56
2023/09/22 00:03:13;;;;;;;345.80;76.50;;;;;;;;;;5040523;28;20052;-56
2023/09/22 00:05:39;;;;;;;256.65;74.20;;;;;;;;;;5038826;28;20031;-58
2023/09/22 00:08:04;;;;;;;289.75;67.80;;;;;;;;;;5040879;28;20399;-56
2023/09/22 00:10:30;;;;;;;376.45;71.32;;;;;;;;;;5040237;28;20486;-56
2023/09/22 00:12:55;;;;;;;337.55;70.40;;;;;;;;;;5023333;28;20028;-55
2023/09/22 00:15:21;;;;;;;404.38;76.88;;;;;;;;;;5039218;28;20142;-57
2023/09/22 00:17:47;;;;;;;327.52;71.50;;;;;;;;;;5040945;28;20025;-55
2023/09/22 00:20:14;;;;;;;334.48;64.90;;;;;;;;;;5040440;28;20021;-56
2023/09/22 00:22:40;;;;;;;289.60;64.30;;;;;;;;;;5021174;28;20017;-56
2023/09/22 00:25:05;;;;;;;184.75;54.80;;;;;;;;;;5040913;28;20071;-56
2023/09/22 00:27:31;;;;;;;289.42;62.42;;;;;;;;;;5039514;28;20495;-58
2023/09/22 00:29:56;;;;;;;293.58;62.35;;;;;;;;;;5041018;28;20024;-56
2023/09/22 00:32:22;;;;;;;326.67;62.30;;;;;;;;;;5039628;28;20516;-56
2023/09/22 00:34:47;;;;;;;324.43;63.40;;;;;;;;;;5039635;28;20290;-58
2023/09/22 00:37:13;;;;;;;311.98;71.93;;;;;;;;;;5039788;28;20370;-56
2023/09/22 00:39:38;;;;;;;292.75;71.75;;;;;;;;;;5038905;28;20938;-57
2023/09/22 00:42:08;;;;;;;261.23;73.50;;;;;;;;;;5039667;28;20105;-57
2023/09/22 00:44:33;;;;;;;492.90;84.43;;;;;;;;;;5038138;28;20314;-57
2023/09/22 00:46:59;;;;;;;286.83;75.28;;;;;;;;;;5040733;28;20057;-57
2023/09/22 00:49:24;;;;;;;321.42;64.57;;;;;;;;;;5039455;28;20496;-56
2023/09/22 00:51:50;;;;;;;311.35;68.13;;;;;;;;;;5038972;28;20064;-57
2023/09/22 00:54:15;;;;;;;255.40;70.68;;;;;;;;;;5040453;28;20032;-57
2023/09/22 00:56:40;;;;;;;307.42;74.82;;;;;;;;;;5038461;28;20432;-56
2023/09/22 00:59:07;;;;;;;330.75;74.47;;;;;;;;;;5039847;28;20021;-56
2023/09/22 01:01:33;;;;;;;390.23;78.90;;;;;;;;;;5038209;28;20040;-56
2023/09/22 01:03:58;;;;;;;328.08;77.60;;;;;;;;;;5038856;28;20025;-55
2023/09/22 01:06:23;;;;;;;391.27;81.30;;;;;;;;;;5038879;28;20068;-57
2023/09/22 01:08:48;;;;;;;299.35;79.45;;;;;;;;;;5038992;28;20279;-54
2023/09/22 01:11:13;;;;;;;341.77;80.10;;;;;;;;;;5039812;28;20219;-55
2023/09/22 01:13:39;;;;;;;265.50;78.97;;;;;;;;;;5038495;28;20267;-56
2023/09/22 01:16:04;;;;;;;349.87;82.23;;;;;;;;;;5038816;28;20313;-56
2023/09/22 01:18:30;;;;;;;417.23;85.78;;;;;;;;;;5038116;28;20268;-55
2023/09/22 01:20:58;;;;;;;365.08;81.28;;;;;;;;;;5038656;28;20064;-54
2023/09/22 01:23:24;;;;;;;374.02;82.72;;;;;;;;;;5038193;28;20021;-54
2023/09/22 01:25:49;;;;;;;364.98;83.18;;;;;;;;;;5037091;28;20098;-56
2023/09/22 01:28:14;;;;;;;323.38;81.82;;;;;;;;;;5039954;28;20546;-54
2023/09/22 01:30:40;;;;;;;408.33;86.50;;;;;;;;;;5037921;28;20025;-57
2023/09/22 01:33:05;;;;;;;315.13;83.50;;;;;;;;;;5038878;28;20248;-55
2023/09/22 01:35:32;;;;;;;494.60;92.70;;;;;;;;;;5036918;28;20087;-54
2023/09/22 01:38:11;;;;;;;359.98;86.10;;;;;;;;;;5038788;28;20108;-56
2023/09/22 01:40:37;;;;;;;499.42;92.38;;;;;;;;;;5036351;28;20032;-55
2023/09/22 01:43:03;;;;;;;330.55;84.38;;;;;;;;;;5038248;28;20017;-56
2023/09/22 01:45:29;;;;;;;415.48;89.30;;;;;;;;;;5037047;28;20662;-56
2023/09/22 01:47:54;;;;;;;304.95;78.38;;;;;;;;;;5039484;28;20021;-56
2023/09/22 01:50:19;;;;;;;293.08;72.00;;;;;;;;;;5038901;28;20044;-55
2023/09/22 01:52:45;;;;;;;376.50;79.63;;;;;;;;;;5037118;28;20389;-56
2023/09/22 01:55:11;;;;;;;291.40;78.53;;;;;;;;;;5038945;28;20024;-55
2023/09/22 01:57:36;;;;;;;466.17;87.55;;;;;;;;;;5037230;28;20290;-56
2023/09/22 02:00:10;;;;;;;349.20;81.60;;;;;;;;;;5038682;28;20413;-55
2023/09/22 02:02:35;;;;;;;471.88;88.18;;;;;;;;;;5036751;28;20036;-56
2023/09/22 02:05:00;;;;;;;364.92;83.03;;;;;;;;;;5038341;28;20409;-57
2023/09/22 02:07:26;;;;;;;325.43;74.60;;;;;;;;;;5036543;28;20058;-56
2023/09/22 02:09:51;;;;;;;311.08;70.95;;;;;;;;;;5038147;28;20252;-57
2023/09/22 02:12:17;;;;;;;327.85;74.15;;;;;;;;;;5038274;28;20045;-55
2023/09/22 02:14:42;;;;;;;446.53;80.77;;;;;;;;;;5036660;28;20016;-55
2023/09/22 02:17:07;;;;;;;300.17;74.10;;;;;;;;;;5037722;28;20268;-56
2023/09/22 02:19:35;;;;;;;391.60;82.57;;;;;;;;;;5037174;28;20550;-56
2023/09/22 02:22:01;;;;;;;339.67;79.63;;;;;;;;;;5038058;28;20275;-55
2023/09/22 02:24:26;;;;;;;371.55;65.10;;;;;;;;;;5037712;28;20028;-55
2023/09/22 02:26:51;;;;;;;284.08;64.85;;;;;;;;;;5038131;28;20028;-56
2023/09/22 02:29:17;;;;;;;239.02;63.30;;;;;;;;;;5039690;28;20579;-55
2023/09/22 02:31:42;;;;;;;474.73;77.30;;;;;;;;;;5037019;28;20021;-54
2023/09/22 02:34:07;;;;;;;303.42;72.72;;;;;;;;;;5038197;28;20581;-56
2023/09/22 02:36:32;;;;;;;499.77;82.70;;;;;;;;;;5034763;28;20040;-56
2023/09/22 02:38:58;;;;;;;315.73;57.77;;;;;;;;;;5037463;28;20267;-56
2023/09/22 02:41:23;;;;;;;194.75;50.10;;;;;;;;;;5037582;28;20268;-56
2023/09/22 02:43:49;;;;;;;300.10;57.25;;;;;;;;;;5035253;28;20035;-56
2023/09/22 02:46:14;;;;;;;281.53;60.33;;;;;;;;;;5038052;28;20497;-56
2023/09/22 02:48:39;;;;;;;430.90;77.43;;;;;;;;;;5036829;28;20267;-57
2023/09/22 02:51:08;;;;;;;313.00;72.43;;;;;;;;;;5036980;28;20260;-56
2023/09/22 02:53:33;;;;;;;427.15;78.10;;;;;;;;;;5036334;28;20267;-56
2023/09/22 02:56:03;;;;;;;326.55;61.72;;;;;;;;;;5036821;28;20033;-55
2023/09/22 02:58:28;;;;;;;235.73;58.50;;;;;;;;;;5036013;28;20044;-56
2023/09/22 03:00:53;;;;;;;295.35;66.03;;;;;;;;;;5036074;28;20060;-55
2023/09/22 03:03:19;;;;;;;339.70;69.40;;;;;;;;;;5035761;28;20039;-56
2023/09/22 03:05:44;;;;;;;323.85;62.92;;;;;;;;;;5034928;28;20264;-55
2023/09/22 03:08:09;;;;;;;244.95;58.97;;;;;;;;;;5037874;28;20149;-56
2023/09/22 03:10:34;;;;;;;343.37;65.47;;;;;;;;;;5035233;28;20410;-55
2023/09/22 03:13:00;;;;;;;315.40;63.97;;;;;;;;;;5036322;28;20263;-55
2023/09/22 03:15:25;;;;;;;224.70;52.58;;;;;;;;;;5035562;28;20024;-56
2023/09/22 03:17:50;;;;;;;227.90;51.72;;;;;;;;;;5035972;28;20021;-56
2023/09/22 03:20:17;;;;;;;334.15;63.42;;;;;;;;;;5036024;28;20031;-56
2023/09/22 03:22:43;;;;;;;380.50;67.35;;;;;;;;;;5036179;28;20009;-56
2023/09/22 03:25:09;;;;;;;240.20;65.22;;;;;;;;;;5037664;28;20024;-57
2023/09/22 03:27:34;;;;;;;426.88;74.65;;;;;;;;;;5035726;28;20029;-56
2023/09/22 03:30:01;;;;;;;267.15;69.63;;;;;;;;;;5036704;28;20375;-56
2023/09/22 03:32:27;;;;;;;338.45;72.53;;;;;;;;;;5035904;28;20052;-56
2023/09/22 03:34:53;;;;;;;294.70;59.30;;;;;;;;;;5033042;28;20032;-55
2023/09/22 03:37:18;;;;;;;264.65;52.92;;;;;;;;;;5035984;28;20033;-55
2023/09/22 03:39:44;;;;;;;419.23;61.83;;;;;;;;;;5035573;28;20051;-56
2023/09/22 03:42:09;;;;;;;229.27;53.47;;;;;;;;;;5036384;28;20195;-56
2023/09/22 03:44:34;;;;;;;459.95;62.10;;;;;;;;;;5028725;28;20084;-55
2023/09/22 03:47:00;;;;;;;283.88;63.40;;;;;;;;;;5033612;28;20032;-54
2023/09/22 03:49:25;;;;;;;279.08;65.60;;;;;;;;;;5034428;28;20452;-57
2023/09/22 03:51:50;;;;;;;325.80;67.83;;;;;;;;;;5031238;28;20589;-55
2023/09/22 03:54:16;;;;;;;301.52;68.40;;;;;;;;;;5034442;28;20294;-54
2023/09/22 03:56:41;;;;;;;489.23;77.82;;;;;;;;;;5032071;28;20063;-55
2023/09/22 03:59:07;;;;;;;321.40;71.97;;;;;;;;;;5033700;28;20221;-55
2023/09/22 04:01:33;;;;;;;336.63;69.68;;;;;;;;;;5031577;28;20040;-56
2023/09/22 04:03:58;;;;;;;377.63;73.68;;;;;;;;;;5034111;28;20059;-56
2023/09/22 04:06:23;;;;;;;344.30;73.50;;;;;;;;;;5034955;28;20807;-59
2023/09/22 04:08:49;;;;;;;560.60;82.37;;;;;;;;;;5033051;28;20452;-57
2023/09/22 04:11:14;;;;;;;366.67;72.38;;;;;;;;;;5033595;28;20267;-57
2023/09/22 04:13:40;;;;;;;522.55;65.75;;;;;;;;;;5032434;28;20028;-57
2023/09/22 04:16:05;;;;;;;320.02;61.33;;;;;;;;;;5031697;28;20037;-57
2023/09/22 04:18:31;;;;;;;336.80;58.45;;;;;;;;;;5034412;28;20032;-59
2023/09/22 04:20:57;;;;;;;393.55;67.38;;;;;;;;;;5032318;28;20439;-56
2023/09/22 04:23:25;;;;;;;352.13;65.93;;;;;;;;;;5034477;28;20644;-58
2023/09/22 04:25:53;;;;;;;435.27;72.95;;;;;;;;;;5031634;28;20056;-56
2023/09/22 04:28:23;;;;;;;366.42;68.88;;;;;;;;;;5034398;28;20452;-56
2023/09/22 04:30:48;;;;;;;463.55;75.68;;;;;;;;;;5031209;28;20044;-57
2023/09/22 04:33:13;;;;;;;245.30;65.50;;;;;;;;;;5033813;28;20029;-58
2023/09/22 04:35:40;;;;;;;441.50;74.40;;;;;;;;;;5031601;28;20366;-58
2023/09/22 04:38:05;;;;;;;303.05;68.93;;;;;;;;;;5016405;28;20104;-57
2023/09/22 04:40:38;;;;;;;335.13;71.38;;;;;;;;;;5033483;28;20132;-56
2023/09/22 04:43:07;;;;;;;373.05;72.07;;;;;;;;;;5036503;28;20024;-58
2023/09/22 04:45:35;;;;;;;322.52;71.60;;;;;;;;;;5036706;28;20714;-57
2023/09/22 04:48:04;;;;;;;360.25;72.68;;;;;;;;;;5037136;28;20547;-56
2023/09/22 04:50:31;;;;;;;318.95;71.88;;;;;;;;;;5038020;28;20483;-57
2023/09/22 04:52:56;;;;;;;323.25;72.15;;;;;;;;;;5036254;28;20013;-58
2023/09/22 04:55:21;;;;;;;307.15;72.22;;;;;;;;;;5037000;28;20032;-57
2023/09/22 04:57:48;;;;;;;467.85;79.15;;;;;;;;;;5035375;28;20017;-56
2023/09/22 05:00:15;;;;;;;301.23;73.18;;;;;;;;;;5036444;28;20331;-56
2023/09/22 05:02:41;;;;;;;494.95;80.13;;;;;;;;;;5035829;28;20075;-56
2023/09/22 05:05:07;;;;;;;321.67;74.78;;;;;;;;;;5037138;28;20446;-55
2023/09/22 05:07:33;;;;;;;354.40;76.63;;;;;;;;;;5036860;28;20231;-56
2023/09/22 05:09:59;;;;;;;371.55;77.80;;;;;;;;;;5035923;28;20308;-57
2023/09/22 05:12:24;;;;;;;380.17;78.18;;;;;;;;;;5036730;28;20494;-58
2023/09/22 05:14:49;;;;;;;525.00;84.55;;;;;;;;;;5035112;28;20565;-58
2023/09/22 05:17:15;;;;;;;337.60;76.63;;;;;;;;;;5037719;28;20063;-57
2023/09/22 05:19:40;;;;;;;530.45;85.95;;;;;;;;;;5037088;28;20366;-61
2023/09/22 05:22:06;;;;;;;385.02;79.22;;;;;;;;;;5037886;28;20075;-57
2023/09/22 05:24:31;;;;;;;418.65;81.07;;;;;;;;;;5037483;28;20017;-57
2023/09/22 05:26:56;;;;;;;371.67;80.18;;;;;;;;;;5034628;28;20075;-58
2023/09/22 05:29:22;;;;;;;355.80;78.83;;;;;;;;;;5035642;28;20013;-57
2023/09/22 05:31:47;;;;;;;551.72;88.47;;;;;;;;;;5034515;28;20274;-57
2023/09/22 05:34:13;;;;;;;421.55;81.47;;;;;;;;;;5036405;28;20051;-58
2023/09/22 05:36:39;;;;;;;478.65;84.90;;;;;;;;;;5035297;28;20029;-59
2023/09/22 05:39:05;;;;;;;398.92;79.68;;;;;;;;;;5036632;28;20070;-58
2023/09/22 05:41:31;;;;;;;315.80;78.57;;;;;;;;;;5036845;28;20477;-58
2023/09/22 05:43:56;;;;;;;387.95;81.95;;;;;;;;;;5034471;28;20551;-59
2023/09/22 05:46:22;;;;;;;329.35;78.00;;;;;;;;;;5035927;28;20102;-58
2023/09/22 05:48:47;;;;;;;486.08;85.78;;;;;;;;;;5035751;28;20116;-58
2023/09/22 05:51:13;;;;;;;334.05;78.95;;;;;;;;;;5035550;28;20107;-58
2023/09/22 05:53:39;;;;;;;371.40;80.85;;;;;;;;;;5034628;28;20539;-58
2023/09/22 05:56:04;;;;;;;330.52;78.65;;;;;;;;;;5036003;28;20041;-58
2023/09/22 05:58:30;;;;;;;325.13;77.65;;;;;;;;;;5036117;28;20075;-58
2023/09/22 06:00:57;;;;;;;418.40;82.03;;;;;;;;;;5033883;28;20116;-58
2023/09/22 06:03:22;;;;;;;396.63;81.18;;;;;;;;;;5035854;28;20524;-56
2023/09/22 06:05:49;;;;;;;458.40;82.70;;;;;;;;;;5034242;28;20029;-57
2023/09/22 06:08:15;;;;;;;329.98;69.85;;;;;;;;;;5036469;28;20021;-57
2023/09/22 06:10:40;;;;;;;467.00;78.10;;;;;;;;;;5033768;28;20029;-58
2023/09/22 06:13:05;;;;;;;380.58;75.47;;;;;;;;;;5035457;28;20247;-57
2023/09/22 06:15:31;;;;;;;417.23;74.28;;;;;;;;;;5034329;28;20112;-57
2023/09/22 06:17:56;;;;;;;547.50;84.97;;;;;;;;;;5034496;28;20028;-58
2023/09/22 06:20:22;;;;;;;414.63;79.30;;;;;;;;;;5036194;28;20013;-56
2023/09/22 06:22:49;;;;;;;631.20;89.03;;;;;;;;;;5034618;28;20206;-57
2023/09/22 06:25:14;;;;;;;404.35;81.65;;;;;;;;;;5035217;28;20345;-57
2023/09/22 06:27:48;;;;;;;409.77;80.05;;;;;;;;;;5033961;28;20021;-58
2023/09/22 06:30:14;;;;;;;352.73;76.90;;;;;;;;;;5034754;28;20056;-59
2023/09/22 06:32:40;;;;;;;366.63;77.53;;;;;;;;;;5032134;28;20073;-57
2023/09/22 06:35:08;;;;;;;274.95;78.82;;;;;;;;;;5034599;28;20389;-58
2023/09/22 06:37:33;;;;;;;307.05;77.38;;;;;;;;;;5034655;28;20029;-58
2023/09/22 06:39:58;;;;;;;348.00;80.10;;;;;;;;;;5034909;28;20035;-58
2023/09/22 06:42:23;;;;;;;342.80;80.13;;;;;;;;;;5035008;28;20272;-58
2023/09/22 06:44:49;;;;;;;492.43;86.73;;;;;;;;;;5033000;28;20291;-58
2023/09/22 06:47:15;;;;;;;393.42;83.90;;;;;;;;;;5032785;28;20366;-59
2023/09/22 06:49:40;;;;;;;402.00;83.85;;;;;;;;;;5033748;28;20051;-57
2023/09/22 06:52:06;;;;;;;394.00;83.95;;;;;;;;;;5034582;28;20025;-58
2023/09/22 06:54:32;;;;;;;485.08;85.65;;;;;;;;;;5033932;28;20385;-58
2023/09/22 06:56:57;;;;;;;548.58;90.90;;;;;;;;;;5032832;28;20577;-58
2023/09/22 06:59:22;;;;;;;405.43;87.10;;;;;;;;;;5035919;28;20025;-58
2023/09/22 07:01:48;;;;;;;542.30;94.20;;;;;;;;;;5033277;28;20302;-58
2023/09/22 07:04:13;;;;;;;387.23;87.78;;;;;;;;;;5034778;28;20291;-58
2023/09/22 07:06:39;;;;;;;393.02;87.32;;;;;;;;;;5034106;28;20434;-57
2023/09/22 07:09:09;;;;;;;381.02;88.55;;;;;;;;;;5032340;28;20116;-57
2023/09/22 07:11:39;;;;;;;427.88;86.70;;;;;;;;;;5034537;28;20041;-59
2023/09/22 07:14:05;;;;;;;348.70;83.90;;;;;;;;;;5032008;28;20043;-59
2023/09/22 07:16:31;;;;;;;333.57;86.60;;;;;;;;;;5034327;28;20036;-59
2023/09/22 07:18:56;;;;;;;437.92;90.13;;;;;;;;;;5033584;28;20267;-58
2023/09/22 07:21:21;;;;;;;368.63;88.23;;;;;;;;;;5033914;28;20040;-58
2023/09/22 07:23:46;;;;;;;426.40;81.27;;;;;;;;;;5032900;28;20310;-56
2023/09/22 07:26:12;;;;;;;371.27;82.10;;;;;;;;;;5033137;28;20267;-58
2023/09/22 07:28:39;;;;;;;361.33;82.65;;;;;;;;;;5034108;28;20733;-57
2023/09/22 07:31:11;;;;;;;354.92;82.97;;;;;;;;;;5031771;28;20033;-58
2023/09/22 07:33:36;;;;;;;400.85;83.70;;;;;;;;;;5033790;28;20177;-56
2023/09/22 07:36:02;;;;;;;395.58;83.82;;;;;;;;;;5029550;28;20147;-57
2023/09/22 07:38:29;;;;;;;410.42;86.05;;;;;;;;;;5035854;28;20040;-56
2023/09/22 07:40:54;;;;;;;548.60;87.75;;;;;;;;;;5032817;28;20056;-56
2023/09/22 07:43:19;;;;;;;436.90;84.15;;;;;;;;;;5034870;28;20394;-58
2023/09/22 07:45:47;;;;;;;430.58;86.00;;;;;;;;;;5031819;28;20350;-59
2023/09/22 07:48:12;;;;;;;346.30;83.40;;;;;;;;;;5032620;28;20587;-57
2023/09/22 07:50:39;;;;;;;333.60;83.97;;;;;;;;;;5034541;28;20544;-58
2023/09/22 07:53:04;;;;;;;365.50;85.68;;;;;;;;;;5034003;28;20263;-58
2023/09/22 07:55:30;;;;;;;285.42;84.07;;;;;;;;;;5033926;28;20028;-57
2023/09/22 07:57:55;;;;;;;445.73;91.45;;;;;;;;;;5034829;28;20474;-57
2023/09/22 08:00:21;;;;;;;403.27;88.20;;;;;;;;;;5034232;28;20103;-57
2023/09/22 08:02:46;;;;;;;415.63;86.17;;;;;;;;;;5031136;28;20701;-58
2023/09/22 08:05:15;;;;;;;339.90;85.68;;;;;;;;;;5033984;28;20287;-58
2023/09/22 08:07:42;;;;;;;393.52;86.15;;;;;;;;;;5033942;28;20106;-58
2023/09/22 08:10:09;;;;;;;477.23;90.78;;;;;;;;;;5033076;28;20012;-58
2023/09/22 08:12:36;;;;;;;380.52;88.22;;;;;;;;;;5034528;28;20059;-58
2023/09/22 08:15:02;;;;;;;530.30;96.75;;;;;;;;;;5031990;28;20352;-57
2023/09/22 08:17:27;;;;;;;461.13;91.97;;;;;;;;;;5035502;28;20463;-58
2023/09/22 08:19:53;;;;;;;509.42;95.38;;;;;;;;;;5038154;28;20215;-57
2023/09/22 08:22:18;;;;;;;364.65;89.15;;;;;;;;;;5038443;28;20406;-57
2023/09/22 08:24:43;;;;;;;322.47;88.30;;;;;;;;;;5035060;28;20277;-58
2023/09/22 08:27:08;;;;;;;406.40;90.32;;;;;;;;;;5034979;28;20272;-57
2023/09/22 08:29:34;;;;;;;380.63;91.10;;;;;;;;;;5039291;28;20100;-58
2023/09/22 08:31:59;;;;;;;442.58;93.05;;;;;;;;;;5037892;28;20362;-59
2023/09/22 08:34:25;;;;;;;367.55;90.45;;;;;;;;;;5038909;28;20035;-57
2023/09/22 08:36:50;;;;;;;490.38;94.85;;;;;;;;;;5037293;28;20044;-58
2023/09/22 08:39:16;;;;;;;433.97;92.13;;;;;;;;;;5040053;28;20017;-57
2023/09/22 08:41:42;;;;;;;425.83;92.03;;;;;;;;;;5038908;28;20268;-58
2023/09/22 08:44:09;;;;;;;458.10;93.07;;;;;;;;;;5019725;28;20518;-57
2023/09/22 08:46:35;;;;;;;444.88;93.93;;;;;;;;;;5040029;28;20119;-59
2023/09/22 08:49:00;;;;;;;672.03;217.73;;;;;;;;;;5038896;28;20396;-59
2023/09/22 08:51:26;;;;;;;444.00;93.15;;;;;;;;;;5038396;28;20120;-57
2023/09/22 08:53:54;;;;;;;484.03;95.20;;;;;;;;;;5036685;28;20031;-58
2023/09/22 08:56:21;;;;;;;417.77;90.05;;;;;;;;;;5036263;28;20275;-58
2023/09/22 08:58:46;;;;;;;379.60;87.97;;;;;;;;;;5038666;28;20394;-57
2023/09/22 09:01:13;;;;;;;384.60;89.23;;;;;;;;;;5037362;28;20029;-58
2023/09/22 09:03:38;;;;;;;370.17;88.75;;;;;;;;;;5038485;28;20029;-56
2023/09/22 09:06:05;;;;;;;435.80;92.43;;;;;;;;;;5037035;28;20111;-56
2023/09/22 09:08:30;;;;;;;410.50;90.60;;;;;;;;;;5039020;28;20037;-58
2023/09/22 09:10:57;;;;;;;500.90;94.40;;;;;;;;;;5036948;28;20036;-59
2023/09/22 09:13:27;;;;;;;515.60;95.32;;;;;;;;;;5036053;28;20305;-57
2023/09/22 09:15:59;;;;;;;545.35;96.30;;;;;;;;;;5036464;28;20037;-59
2023/09/22 09:18:25;;;;;;;357.00;89.65;;;;;;;;;;5038332;28;20407;-59
2023/09/22 09:21:09;;;;;;;455.00;92.13;;;;;;;;;;5036603;28;20029;-60
2023/09/22 09:23:34;;;;;;;424.45;90.90;;;;;;;;;;5019074;28;20855;-60
2023/09/22 09:26:00;;;;;;;489.05;95.25;;;;;;;;;;5035005;28;20033;-59
2023/09/22 09:28:25;;;;;;;338.70;90.77;;;;;;;;;;5036645;28;20028;-59
2023/09/22 09:30:51;;;;;;;421.00;93.07;;;;;;;;;;5035731;28;20374;-58
2023/09/22 09:33:19;;;;;;;414.98;93.45;;;;;;;;;;5037768;28;20079;-59
2023/09/22 09:35:44;;;;;;;385.42;80.88;;;;;;;;;;5037450;28;20037;-57
2023/09/22 09:38:11;;;;;;;323.25;75.80;;;;;;;;;;5036832;28;20410;-56
2023/09/22 09:40:37;;;;;;;306.63;72.50;;;;;;;;;;5037618;28;20040;-58
2023/09/22 09:43:06;;;;;;;472.58;78.32;;;;;;;;;;5036936;28;20009;-58
2023/09/22 09:45:33;;;;;;;386.45;77.68;;;;;;;;;;5036917;28;20461;-59
2023/09/22 09:47:58;;;;;;;439.58;83.15;;;;;;;;;;5037160;28;20338;-58
2023/09/22 09:50:25;;;;;;;408.63;82.65;;;;;;;;;;5037401;28;20043;-58
2023/09/22 09:52:52;;;;;;;466.48;85.50;;;;;;;;;;5036521;28;20150;-58
2023/09/22 09:55:20;;;;;;;384.48;92.55;;;;;;;;;;5034656;28;20021;-59
2023/09/22 09:57:46;;;;;;;357.60;84.07;;;;;;;;;;5037359;28;20021;-58
2023/09/22 10:00:13;;;;;;;365.90;83.93;;;;;;;;;;5036594;28;20070;-59
2023/09/22 10:02:40;;;;;;;404.42;84.97;;;;;;;;;;5035162;28;20469;-56
2023/09/22 10:05:07;;;;;;;386.67;85.35;;;;;;;;;;5036582;28;20311;-57
2023/09/22 10:07:34;;;;;;;396.52;85.85;;;;;;;;;;5037126;28;20033;-58
2023/09/22 10:10:01;;;;;;;660.70;189.65;;;;;;;;;;5036235;28;20615;-59
2023/09/22 10:12:28;;;;;;;432.30;86.88;;;;;;;;;;5036016;28;20033;-58
2023/09/22 10:14:59;;;;;;;473.77;89.45;;;;;;;;;;5035259;28;20121;-58
2023/09/22 10:17:25;;;;;;;371.10;86.00;;;;;;;;;;5036778;28;20132;-58
2023/09/22 10:19:50;;;;;;;397.48;88.60;;;;;;;;;;5036684;28;20131;-58
2023/09/22 10:22:15;;;;;;;371.33;87.32;;;;;;;;;;5036542;28;20032;-59
2023/09/22 10:24:42;;;;;;;353.85;86.65;;;;;;;;;;5034599;28;20403;-59
2023/09/22 10:27:08;;;;;;;470.13;91.00;;;;;;;;;;5034629;28;20071;-58
2023/09/22 10:29:33;;;;;;;382.30;81.90;;;;;;;;;;5036416;28;20510;-59
2023/09/22 10:32:26;;;;;;;478.00;89.70;;;;;;;;;;5035102;28;20506;-58
2023/09/22 10:35:07;;;;;;;491.02;91.10;;;;;;;;;;5035102;28;20263;-58
2023/09/22 10:37:35;;;;;;;387.60;89.85;;;;;;;;;;5035637;28;20067;-57
2023/09/22 10:40:08;;;;;;;502.73;97.57;;;;;;;;;;5034343;28;20032;-58
2023/09/22 10:42:39;;;;;;;441.85;91.90;;;;;;;;;;5035854;28;20040;-58
2023/09/22 10:45:05;;;;;;;548.75;97.93;;;;;;;;;;5034242;28;20028;-58
2023/09/22 10:47:36;;;;;;;456.88;95.75;;;;;;;;;;5034851;28;20040;-57
2023/09/22 10:50:10;;;;;;;431.63;93.63;;;;;;;;;;5035171;28;20450;-58
2023/09/22 10:52:36;;;;;;;448.38;92.43;;;;;;;;;;5034603;28;20025;-57
2023/09/22 10:55:02;;;;;;;510.65;96.80;;;;;;;;;;5014703;28;20404;-56
2023/09/22 10:57:29;;;;;;;425.38;91.88;;;;;;;;;;5034956;28;20063;-59
2023/09/22 10:59:55;;;;;;;477.60;93.60;;;;;;;;;;5034820;28;20047;-58
2023/09/22 11:02:24;;;;;;;442.02;92.75;;;;;;;;;;5035513;28;20029;-58
2023/09/22 11:04:49;;;;;;;461.52;109.70;;;;;;;;;;5035137;28;20375;-57
2023/09/22 11:07:33;;;;;;;364.30;86.27;;;;;;;;;;5035140;28;20505;-57
2023/09/22 11:09:59;;;;;;;545.20;95.32;;;;;;;;;;5034787;28;20256;-58
2023/09/22 11:12:25;;;;;;;436.27;92.70;;;;;;;;;;5034480;28;20593;-57
2023/09/22 11:14:51;;;;;;;470.63;94.25;;;;;;;;;;5034324;28;20111;-59
2023/09/22 11:17:16;;;;;;;383.35;87.45;;;;;;;;;;5033201;28;20035;-57
2023/09/22 11:19:54;;;;;;;407.93;89.47;;;;;;;;;;5035723;28;20048;-57
2023/09/22 11:22:20;;;;;;;427.35;92.03;;;;;;;;;;5034712;28;20259;-58
2023/09/22 11:24:46;;;;;;;497.45;98.25;;;;;;;;;;5031708;28;20029;-57
2023/09/22 11:27:11;;;;;;;520.10;97.47;;;;;;;;;;5034128;28;20205;-57
2023/09/22 11:29:38;;;;;;;432.25;94.40;;;;;;;;;;5035554;28;20013;-57
2023/09/22 11:32:05;;;;;;;538.95;98.75;;;;;;;;;;5032786;28;20031;-57
2023/09/22 11:34:30;;;;;;;481.75;99.38;;;;;;;;;;5033984;28;20029;-57
2023/09/22 11:36:57;;;;;;;446.13;95.25;;;;;;;;;;5034303;28;20044;-56
2023/09/22 11:39:26;;;;;;;375.50;92.53;;;;;;;;;;5035769;28;20579;-57
2023/09/22 11:41:51;;;;;;;438.08;94.65;;;;;;;;;;5033897;28;20029;-59
2023/09/22 11:44:17;;;;;;;406.42;92.57;;;;;;;;;;5021767;28;20021;-57
2023/09/22 11:46:45;;;;;;;436.53;93.77;;;;;;;;;;5015180;28;20036;-58
2023/09/22 11:49:12;;;;;;;505.30;97.72;;;;;;;;;;5014403;28;20314;-57
2023/09/22 11:51:38;;;;;;;469.17;96.50;;;;;;;;;;5016337;28;20026;-58
2023/09/22 11:54:03;;;;;;;579.87;105.07;;;;;;;;;;5016640;28;20025;-59
2023/09/22 11:56:28;;;;;;;465.80;97.93;;;;;;;;;;5016184;28;20272;-58
2023/09/22 11:59:03;;;;;;;514.60;101.10;;;;;;;;;;5018697;28;20466;-58
2023/09/22 12:01:28;;;;;;;369.15;95.47;;;;;;;;;;5018880;28;20260;-58
2023/09/22 12:03:53;;;;;;;394.80;98.80;;;;;;;;;;5019099;28;20037;-58
2023/09/22 12:06:19;;;;;;;468.20;119.23;;;;;;;;;;5018273;28;20561;-57
2023/09/22 12:08:44;;;;;;;375.13;83.25;;;;;;;;;;5019824;28;20496;-56
2023/09/22 12:11:10;;;;;;;501.40;91.25;;;;;;;;;;5018471;28;20033;-58
2023/09/22 12:13:35;;;;;;;374.70;78.80;;;;;;;;;;5019226;28;20017;-59
2023/09/22 12:16:00;;;;;;;539.70;82.73;;;;;;;;;;5016549;28;20271;-59
2023/09/22 12:18:25;;;;;;;436.15;84.35;;;;;;;;;;5018107;28;20256;-59
2023/09/22 12:20:51;;;;;;;474.02;90.60;;;;;;;;;;5017701;28;20053;-56
2023/09/22 12:23:16;;;;;;;436.38;76.03;;;;;;;;;;5016789;28;20014;-58
2023/09/22 12:25:41;;;;;;;470.93;78.77;;;;;;;;;;5015166;28;20109;-57
2023/09/22 12:28:06;;;;;;;500.85;81.90;;;;;;;;;;5018427;28;20315;-59
2023/09/22 12:30:32;;;;;;;359.88;75.45;;;;;;;;;;5017410;28;20021;-58
2023/09/22 12:32:57;;;;;;;417.97;81.17;;;;;;;;;;5017727;28;20014;-57
2023/09/22 12:35:23;;;;;;;373.45;76.88;;;;;;;;;;5017697;28;20684;-57
2023/09/22 12:37:51;;;;;;;387.45;80.55;;;;;;;;;;5018667;28;20021;-58
2023/09/22 12:40:17;;;;;;;479.90;178.48;;;;;;;;;;5017006;28;20387;-57
2023/09/22 12:42:42;;;;;;;392.30;82.18;;;;;;;;;;5018557;28;20452;-58
2023/09/22 12:45:08;;;;;;;425.43;84.77;;;;;;;;;;5036314;28;20027;-58
2023/09/22 12:47:34;;;;;;;685.05;229.30;;;;;;;;;;5037510;28;20255;-58
2023/09/22 12:50:04;;;;;;;431.15;82.75;;;;;;;;;;5036440;28;20024;-57
2023/09/22 12:52:30;;;;;;;398.80;86.97;;;;;;;;;;5035959;28;20037;-57
2023/09/22 12:54:56;;;;;;;482.25;96.72;;;;;;;;;;5035506;28;20143;-58
2023/09/22 12:57:21;;;;;;;415.63;78.67;;;;;;;;;;5037449;28;20112;-58
2023/09/22 12:59:47;;;;;;;427.05;83.63;;;;;;;;;;5036881;28;20297;-59
2023/09/22 13:02:12;;;;;;;577.95;123.63;;;;;;;;;;5036423;28;20035;-58
2023/09/22 13:04:38;;;;;;;400.45;79.53;;;;;;;;;;5036095;28;20184;-58
2023/09/22 13:07:03;;;;;;;444.30;83.32;;;;;;;;;;5036230;28;20102;-58
2023/09/22 13:09:29;;;;;;;336.43;75.73;;;;;;;;;;5038421;28;20427;-59
2023/09/22 13:11:55;;;;;;;389.80;84.38;;;;;;;;;;5035998;28;20322;-58
2023/09/22 13:14:20;;;;;;;401.50;112.80;;;;;;;;;;5034330;28;20047;-58
2023/09/22 13:16:45;;;;;;;370.30;82.93;;;;;;;;;;5035660;28;20521;-57
2023/09/22 13:19:10;;;;;;;434.90;87.50;;;;;;;;;;5035853;28;20060;-57
2023/09/22 13:21:36;;;;;;;376.30;90.07;;;;;;;;;;5037177;28;20264;-59
2023/09/22 13:24:01;;;;;;;473.95;89.80;;;;;;;;;;5033295;28;20656;-59
2023/09/22 13:26:26;;;;;;;444.35;87.38;;;;;;;;;;5035718;28;20064;-58
2023/09/22 13:28:55;;;;;;;478.23;89.68;;;;;;;;;;5036978;28;20017;-60
2023/09/22 13:31:20;;;;;;;367.05;85.55;;;;;;;;;;5017521;28;20033;-57
2023/09/22 13:33:45;;;;;;;383.52;87.35;;;;;;;;;;5037083;28;20036;-58
2023/09/22 13:36:14;;;;;;;517.50;93.73;;;;;;;;;;5017923;28;20037;-60
2023/09/22 13:38:40;;;;;;;381.95;88.25;;;;;;;;;;5037870;28;20322;-58
2023/09/22 13:41:12;;;;;;;346.70;84.80;;;;;;;;;;5035321;28;20042;-58
2023/09/22 13:43:37;;;;;;;432.52;90.00;;;;;;;;;;5036328;28;20291;-57
2023/09/22 13:46:08;;;;;;;483.45;89.80;;;;;;;;;;5034134;28;20029;-58
2023/09/22 13:48:34;;;;;;;431.38;95.20;;;;;;;;;;5037522;28;20128;-59
2023/09/22 13:50:59;;;;;;;440.00;88.50;;;;;;;;;;5034626;28;20071;-57
2023/09/22 13:53:24;;;;;;;534.40;92.40;;;;;;;;;;5035400;28;20329;-56
2023/09/22 13:55:49;;;;;;;458.00;89.03;;;;;;;;;;5034754;28;20120;-58
2023/09/22 13:58:15;;;;;;;494.67;92.93;;;;;;;;;;5035649;28;20087;-57